sensor_id;sensor_type;location;lat;lon;timestamp;P1;durP1;ratioP1;P2;durP2;ratioP2
74245;SDS011;62601;51.044;13.788;2023-05-10T00:00:53;3.50;;;3.20;;
74245;SDS011;62601;51.044;13.788;2023-05-10T00:03:14;4.30;;;2.70;;
74245;SDS011;62601;51.044;13.788;2023-05-10T00:05:36;2.70;;;2.50;;
74245;SDS011;62601;51.044;13.788;2023-05-10T00:07:56;3.73;;;2.70;;
74245;SDS011;62601;51.044;13.788;2023-05-10T00:10:17;5.20;;;2.87;;
74245;SDS011;62601;51.044;13.788;2023-05-10T00:12:39;5.30;;;2.90;;
74245;SDS011;62601;51.044;13.788;2023-05-10T00:14:59;6.17;;;2.60;;
74245;SDS011;62601;51.044;13.788;2023-05-10T00:17:20;4.03;;;2.60;;
74245;SDS011;62601;51.044;13.788;2023-05-10T00:19:42;4.13;;;2.77;;
74245;SDS011;62601;51.044;13.788;2023-05-10T00:22:02;2.90;;;2.60;;
74245;SDS011;62601;51.044;13.788;2023-05-10T00:24:22;2.50;;;2.30;;
74245;SDS011;62601;51.044;13.788;2023-05-10T00:26:42;3.40;;;3.10;;
74245;SDS011;62601;51.044;13.788;2023-05-10T00:29:03;4.13;;;3.03;;
74245;SDS011;62601;51.044;13.788;2023-05-10T00:31:24;2.73;;;2.53;;
74245;SDS011;62601;51.044;13.788;2023-05-10T00:33:44;3.03;;;2.30;;
74245;SDS011;62601;51.044;13.788;2023-05-10T00:36:06;3.43;;;2.23;;
74245;SDS011;62601;51.044;13.788;2023-05-10T00:38:27;2.80;;;2.60;;
74245;SDS011;62601;51.044;13.788;2023-05-10T00:40:47;3.83;;;2.73;;
74245;SDS011;62601;51.044;13.788;2023-05-10T00:43:09;3.83;;;2.30;;
74245;SDS011;62601;51.044;13.788;2023-05-10T00:45:33;2.30;;;2.10;;
74245;SDS011;62601;51.044;13.788;2023-05-10T00:48:00;3.07;;;2.77;;
74245;SDS011;62601;51.044;13.788;2023-05-10T00:50:22;3.20;;;2.90;;
74245;SDS011;62601;51.044;13.788;2023-05-10T00:52:46;2.50;;;2.30;;
74245;SDS011;62601;51.044;13.788;2023-05-10T00:55:07;2.40;;;2.03;;
74245;SDS011;62601;51.044;13.788;2023-05-10T00:57:28;2.83;;;2.30;;
74245;SDS011;62601;51.044;13.788;2023-05-10T00:59:49;3.77;;;2.40;;
74245;SDS011;62601;51.044;13.788;2023-05-10T01:02:10;3.40;;;2.10;;
74245;SDS011;62601;51.044;13.788;2023-05-10T01:04:31;2.40;;;2.20;;
74245;SDS011;62601;51.044;13.788;2023-05-10T01:06:53;2.80;;;2.60;;
74245;SDS011;62601;51.044;13.788;2023-05-10T01:09:14;3.67;;;2.40;;
74245;SDS011;62601;51.044;13.788;2023-05-10T01:11:34;3.10;;;2.77;;
74245;SDS011;62601;51.044;13.788;2023-05-10T01:13:57;3.03;;;2.70;;
74245;SDS011;62601;51.044;13.788;2023-05-10T01:16:18;2.50;;;2.30;;
74245;SDS011;62601;51.044;13.788;2023-05-10T01:18:40;3.50;;;2.40;;
74245;SDS011;62601;51.044;13.788;2023-05-10T01:29:06;3.23;;;2.60;;
74245;SDS011;62601;51.044;13.788;2023-05-10T01:34:20;3.23;;;2.60;;
74245;SDS011;62601;51.044;13.788;2023-05-10T01:36:51;2.93;;;2.20;;
74245;SDS011;62601;51.044;13.788;2023-05-10T01:39:24;2.40;;;2.20;;
74245;SDS011;62601;51.044;13.788;2023-05-10T01:41:54;2.77;;;2.20;;
74245;SDS011;62601;51.044;13.788;2023-05-10T01:47:14;3.77;;;2.33;;
74245;SDS011;62601;51.044;13.788;2023-05-10T01:49:37;2.40;;;2.20;;
74245;SDS011;62601;51.044;13.788;2023-05-10T01:52:00;2.80;;;2.20;;
74245;SDS011;62601;51.044;13.788;2023-05-10T01:54:21;4.50;;;2.60;;
74245;SDS011;62601;51.044;13.788;2023-05-10T01:56:43;2.70;;;2.40;;
74245;SDS011;62601;51.044;13.788;2023-05-10T01:59:08;3.63;;;2.30;;
74245;SDS011;62601;51.044;13.788;2023-05-10T02:01:33;2.17;;;1.97;;
74245;SDS011;62601;51.044;13.788;2023-05-10T02:03:54;2.50;;;2.03;;
74245;SDS011;62601;51.044;13.788;2023-05-10T02:06:19;2.07;;;1.97;;
74245;SDS011;62601;51.044;13.788;2023-05-10T02:08:41;4.23;;;2.30;;
74245;SDS011;62601;51.044;13.788;2023-05-10T02:11:07;2.50;;;2.30;;
74245;SDS011;62601;51.044;13.788;2023-05-10T02:13:29;2.23;;;2.10;;
74245;SDS011;62601;51.044;13.788;2023-05-10T02:15:49;2.20;;;1.93;;
74245;SDS011;62601;51.044;13.788;2023-05-10T02:18:12;2.37;;;2.17;;
74245;SDS011;62601;51.044;13.788;2023-05-10T02:20:33;3.23;;;2.90;;
74245;SDS011;62601;51.044;13.788;2023-05-10T02:22:56;3.90;;;2.47;;
74245;SDS011;62601;51.044;13.788;2023-05-10T02:25:17;2.63;;;2.20;;
74245;SDS011;62601;51.044;13.788;2023-05-10T02:27:39;3.10;;;2.30;;
74245;SDS011;62601;51.044;13.788;2023-05-10T02:30:01;3.00;;;2.27;;
74245;SDS011;62601;51.044;13.788;2023-05-10T02:32:22;3.40;;;3.10;;
74245;SDS011;62601;51.044;13.788;2023-05-10T02:34:45;2.43;;;2.23;;
74245;SDS011;62601;51.044;13.788;2023-05-10T02:37:07;2.80;;;2.20;;
74245;SDS011;62601;51.044;13.788;2023-05-10T02:39:28;4.30;;;2.30;;
74245;SDS011;62601;51.044;13.788;2023-05-10T02:41:50;2.20;;;1.97;;
74245;SDS011;62601;51.044;13.788;2023-05-10T02:44:12;1.90;;;1.80;;
74245;SDS011;62601;51.044;13.788;2023-05-10T02:46:34;2.80;;;2.00;;
74245;SDS011;62601;51.044;13.788;2023-05-10T02:48:58;2.70;;;2.10;;
74245;SDS011;62601;51.044;13.788;2023-05-10T02:51:18;3.23;;;2.47;;
74245;SDS011;62601;51.044;13.788;2023-05-10T02:53:41;4.30;;;2.10;;
74245;SDS011;62601;51.044;13.788;2023-05-10T02:56:14;5.17;;;2.70;;
74245;SDS011;62601;51.044;13.788;2023-05-10T02:58:35;5.30;;;2.10;;
74245;SDS011;62601;51.044;13.788;2023-05-10T03:00:56;3.33;;;2.53;;
74245;SDS011;62601;51.044;13.788;2023-05-10T03:03:18;3.10;;;2.30;;
74245;SDS011;62601;51.044;13.788;2023-05-10T03:05:39;2.30;;;2.07;;
74245;SDS011;62601;51.044;13.788;2023-05-10T03:08:01;2.60;;;2.23;;
74245;SDS011;62601;51.044;13.788;2023-05-10T03:10:23;2.73;;;2.47;;
74245;SDS011;62601;51.044;13.788;2023-05-10T03:18:08;2.53;;;2.33;;
74245;SDS011;62601;51.044;13.788;2023-05-10T03:20:31;2.30;;;2.10;;
74245;SDS011;62601;51.044;13.788;2023-05-10T03:23:24;4.80;;;2.20;;
74245;SDS011;62601;51.044;13.788;2023-05-10T03:25:48;2.58;;;2.38;;
74245;SDS011;62601;51.044;13.788;2023-05-10T03:28:10;2.70;;;2.50;;
74245;SDS011;62601;51.044;13.788;2023-05-10T03:30:32;2.57;;;2.37;;
74245;SDS011;62601;51.044;13.788;2023-05-10T03:32:53;2.60;;;2.40;;
74245;SDS011;62601;51.044;13.788;2023-05-10T03:35:14;3.10;;;2.80;;
74245;SDS011;62601;51.044;13.788;2023-05-10T03:37:35;2.83;;;2.20;;
74245;SDS011;62601;51.044;13.788;2023-05-10T03:39:56;4.50;;;2.80;;
74245;SDS011;62601;51.044;13.788;2023-05-10T03:42:17;2.97;;;2.70;;
74245;SDS011;62601;51.044;13.788;2023-05-10T03:44:39;2.47;;;2.27;;
74245;SDS011;62601;51.044;13.788;2023-05-10T03:47:00;3.17;;;2.60;;
74245;SDS011;62601;51.044;13.788;2023-05-10T03:49:20;3.87;;;2.40;;
74245;SDS011;62601;51.044;13.788;2023-05-10T03:51:42;2.47;;;2.10;;
74245;SDS011;62601;51.044;13.788;2023-05-10T03:54:04;5.97;;;2.60;;
74245;SDS011;62601;51.044;13.788;2023-05-10T03:56:24;3.17;;;2.10;;
74245;SDS011;62601;51.044;13.788;2023-05-10T03:58:45;2.80;;;2.37;;
74245;SDS011;62601;51.044;13.788;2023-05-10T04:01:06;2.70;;;2.50;;
74245;SDS011;62601;51.044;13.788;2023-05-10T04:03:29;2.90;;;2.23;;
74245;SDS011;62601;51.044;13.788;2023-05-10T04:05:55;3.55;;;2.25;;
74245;SDS011;62601;51.044;13.788;2023-05-10T04:08:17;2.23;;;2.03;;
74245;SDS011;62601;51.044;13.788;2023-05-10T04:10:38;3.45;;;2.50;;
74245;SDS011;62601;51.044;13.788;2023-05-10T04:12:58;2.93;;;2.73;;
74245;SDS011;62601;51.044;13.788;2023-05-10T04:15:18;3.73;;;2.50;;
74245;SDS011;62601;51.044;13.788;2023-05-10T04:17:38;3.10;;;2.20;;
74245;SDS011;62601;51.044;13.788;2023-05-10T04:19:58;3.47;;;2.53;;
74245;SDS011;62601;51.044;13.788;2023-05-10T04:22:18;2.50;;;2.30;;
74245;SDS011;62601;51.044;13.788;2023-05-10T04:24:38;2.87;;;2.67;;
74245;SDS011;62601;51.044;13.788;2023-05-10T04:26:58;2.50;;;2.30;;
74245;SDS011;62601;51.044;13.788;2023-05-10T04:29:20;2.88;;;2.28;;
74245;SDS011;62601;51.044;13.788;2023-05-10T04:31:41;2.37;;;2.00;;
74245;SDS011;62601;51.044;13.788;2023-05-10T04:34:01;2.80;;;2.60;;
74245;SDS011;62601;51.044;13.788;2023-05-10T04:36:23;2.30;;;1.90;;
74245;SDS011;62601;51.044;13.788;2023-05-10T04:38:44;4.43;;;2.37;;
74245;SDS011;62601;51.044;13.788;2023-05-10T04:41:08;8.87;;;2.47;;
74245;SDS011;62601;51.044;13.788;2023-05-10T04:43:29;3.00;;;2.20;;
74245;SDS011;62601;51.044;13.788;2023-05-10T04:45:51;2.63;;;2.37;;
74245;SDS011;62601;51.044;13.788;2023-05-10T04:48:12;2.75;;;2.28;;
74245;SDS011;62601;51.044;13.788;2023-05-10T04:50:34;4.83;;;2.63;;
74245;SDS011;62601;51.044;13.788;2023-05-10T04:52:54;3.73;;;2.97;;
74245;SDS011;62601;51.044;13.788;2023-05-10T04:55:14;3.43;;;2.27;;
74245;SDS011;62601;51.044;13.788;2023-05-10T04:57:36;3.27;;;2.67;;
74245;SDS011;62601;51.044;13.788;2023-05-10T04:59:57;4.23;;;2.10;;
74245;SDS011;62601;51.044;13.788;2023-05-10T05:02:19;2.47;;;2.20;;
74245;SDS011;62601;51.044;13.788;2023-05-10T05:04:40;3.57;;;2.50;;
74245;SDS011;62601;51.044;13.788;2023-05-10T05:07:03;2.80;;;2.20;;
74245;SDS011;62601;51.044;13.788;2023-05-10T05:09:23;4.13;;;2.60;;
74245;SDS011;62601;51.044;13.788;2023-05-10T05:11:43;3.10;;;2.80;;
74245;SDS011;62601;51.044;13.788;2023-05-10T05:14:03;3.73;;;2.73;;
74245;SDS011;62601;51.044;13.788;2023-05-10T05:16:23;3.10;;;2.70;;
74245;SDS011;62601;51.044;13.788;2023-05-10T05:18:44;3.53;;;2.87;;
74245;SDS011;62601;51.044;13.788;2023-05-10T05:21:13;3.60;;;2.90;;
74245;SDS011;62601;51.044;13.788;2023-05-10T05:23:34;4.60;;;2.70;;
74245;SDS011;62601;51.044;13.788;2023-05-10T05:25:54;3.40;;;2.77;;
74245;SDS011;62601;51.044;13.788;2023-05-10T05:28:14;4.60;;;2.97;;
74245;SDS011;62601;51.044;13.788;2023-05-10T05:30:35;8.47;;;2.93;;
74245;SDS011;62601;51.044;13.788;2023-05-10T05:32:57;3.00;;;2.80;;
74245;SDS011;62601;51.044;13.788;2023-05-10T05:35:18;6.30;;;3.43;;
74245;SDS011;62601;51.044;13.788;2023-05-10T05:37:40;4.40;;;2.73;;
74245;SDS011;62601;51.044;13.788;2023-05-10T05:40:02;3.53;;;2.70;;
74245;SDS011;62601;51.044;13.788;2023-05-10T05:42:23;4.00;;;2.77;;
74245;SDS011;62601;51.044;13.788;2023-05-10T05:44:44;3.23;;;2.67;;
74245;SDS011;62601;51.044;13.788;2023-05-10T05:47:06;6.67;;;2.90;;
74245;SDS011;62601;51.044;13.788;2023-05-10T05:49:26;4.00;;;2.70;;
74245;SDS011;62601;51.044;13.788;2023-05-10T05:51:46;3.00;;;2.80;;
74245;SDS011;62601;51.044;13.788;2023-05-10T05:54:08;5.33;;;2.80;;
74245;SDS011;62601;51.044;13.788;2023-05-10T05:56:30;3.17;;;2.77;;
74245;SDS011;62601;51.044;13.788;2023-05-10T05:58:51;3.37;;;2.13;;
74245;SDS011;62601;51.044;13.788;2023-05-10T06:01:11;2.33;;;1.90;;
74245;SDS011;62601;51.044;13.788;2023-05-10T06:03:33;4.70;;;2.33;;
74245;SDS011;62601;51.044;13.788;2023-05-10T06:05:54;2.63;;;2.43;;
74245;SDS011;62601;51.044;13.788;2023-05-10T06:08:16;4.57;;;2.90;;
74245;SDS011;62601;51.044;13.788;2023-05-10T06:10:37;3.53;;;2.57;;
74245;SDS011;62601;51.044;13.788;2023-05-10T06:12:57;4.13;;;2.43;;
74245;SDS011;62601;51.044;13.788;2023-05-10T06:15:19;2.60;;;2.40;;
74245;SDS011;62601;51.044;13.788;2023-05-10T06:17:40;2.60;;;2.40;;
74245;SDS011;62601;51.044;13.788;2023-05-10T06:20:01;2.90;;;2.70;;
74245;SDS011;62601;51.044;13.788;2023-05-10T06:22:22;3.67;;;2.60;;
74245;SDS011;62601;51.044;13.788;2023-05-10T06:24:42;3.70;;;2.50;;
74245;SDS011;62601;51.044;13.788;2023-05-10T06:27:02;3.03;;;2.73;;
74245;SDS011;62601;51.044;13.788;2023-05-10T06:29:22;3.57;;;2.30;;
74245;SDS011;62601;51.044;13.788;2023-05-10T06:31:42;3.17;;;2.87;;
74245;SDS011;62601;51.044;13.788;2023-05-10T06:34:02;4.90;;;2.90;;
74245;SDS011;62601;51.044;13.788;2023-05-10T06:36:22;2.93;;;2.63;;
74245;SDS011;62601;51.044;13.788;2023-05-10T06:38:42;2.27;;;2.07;;
74245;SDS011;62601;51.044;13.788;2023-05-10T06:41:02;15.70;;;3.50;;
74245;SDS011;62601;51.044;13.788;2023-05-10T06:43:22;12.40;;;3.57;;
74245;SDS011;62601;51.044;13.788;2023-05-10T06:45:44;3.80;;;2.90;;
74245;SDS011;62601;51.044;13.788;2023-05-10T06:48:04;6.63;;;2.40;;
74245;SDS011;62601;51.044;13.788;2023-05-10T06:50:25;4.53;;;2.10;;
74245;SDS011;62601;51.044;13.788;2023-05-10T06:52:49;2.87;;;2.57;;
74245;SDS011;62601;51.044;13.788;2023-05-10T06:55:11;5.23;;;2.50;;
74245;SDS011;62601;51.044;13.788;2023-05-10T06:57:32;4.83;;;2.67;;
74245;SDS011;62601;51.044;13.788;2023-05-10T06:59:53;2.80;;;2.57;;
74245;SDS011;62601;51.044;13.788;2023-05-10T07:02:15;3.03;;;2.73;;
74245;SDS011;62601;51.044;13.788;2023-05-10T07:04:35;3.67;;;2.70;;
74245;SDS011;62601;51.044;13.788;2023-05-10T07:06:56;5.43;;;3.20;;
74245;SDS011;62601;51.044;13.788;2023-05-10T07:09:17;8.90;;;2.90;;
74245;SDS011;62601;51.044;13.788;2023-05-10T07:11:39;5.80;;;3.00;;
74245;SDS011;62601;51.044;13.788;2023-05-10T07:13:59;3.80;;;2.50;;
74245;SDS011;62601;51.044;13.788;2023-05-10T07:16:19;3.90;;;2.33;;
74245;SDS011;62601;51.044;13.788;2023-05-10T07:18:41;6.67;;;2.70;;
74245;SDS011;62601;51.044;13.788;2023-05-10T07:21:02;4.67;;;2.50;;
74245;SDS011;62601;51.044;13.788;2023-05-10T07:23:23;3.23;;;2.40;;
74245;SDS011;62601;51.044;13.788;2023-05-10T07:25:48;4.00;;;2.80;;
74245;SDS011;62601;51.044;13.788;2023-05-10T07:28:10;3.80;;;2.90;;
74245;SDS011;62601;51.044;13.788;2023-05-10T07:30:31;4.13;;;3.00;;
74245;SDS011;62601;51.044;13.788;2023-05-10T07:32:51;4.33;;;3.00;;
74245;SDS011;62601;51.044;13.788;2023-05-10T07:35:14;3.80;;;3.03;;
74245;SDS011;62601;51.044;13.788;2023-05-10T07:37:34;10.43;;;3.03;;
74245;SDS011;62601;51.044;13.788;2023-05-10T07:39:55;3.60;;;3.27;;
74245;SDS011;62601;51.044;13.788;2023-05-10T07:42:17;4.13;;;3.13;;
74245;SDS011;62601;51.044;13.788;2023-05-10T07:44:37;6.10;;;3.00;;
74245;SDS011;62601;51.044;13.788;2023-05-10T07:46:57;4.23;;;2.87;;
74245;SDS011;62601;51.044;13.788;2023-05-10T07:49:17;2.93;;;2.73;;
74245;SDS011;62601;51.044;13.788;2023-05-10T07:51:39;3.63;;;2.93;;
74245;SDS011;62601;51.044;13.788;2023-05-10T07:53:59;5.50;;;3.47;;
74245;SDS011;62601;51.044;13.788;2023-05-10T07:56:20;9.27;;;3.27;;
74245;SDS011;62601;51.044;13.788;2023-05-10T07:58:41;5.60;;;3.20;;
74245;SDS011;62601;51.044;13.788;2023-05-10T08:01:02;3.60;;;3.10;;
74245;SDS011;62601;51.044;13.788;2023-05-10T08:03:24;3.70;;;3.13;;
74245;SDS011;62601;51.044;13.788;2023-05-10T08:05:45;4.00;;;3.13;;
74245;SDS011;62601;51.044;13.788;2023-05-10T08:08:07;6.70;;;3.40;;
74245;SDS011;62601;51.044;13.788;2023-05-10T08:10:28;3.50;;;3.20;;
74245;SDS011;62601;51.044;13.788;2023-05-10T08:12:48;3.93;;;3.27;;
74245;SDS011;62601;51.044;13.788;2023-05-10T08:15:10;4.53;;;3.40;;
74245;SDS011;62601;51.044;13.788;2023-05-10T08:17:31;4.00;;;2.67;;
74245;SDS011;62601;51.044;13.788;2023-05-10T08:19:52;6.60;;;3.30;;
74245;SDS011;62601;51.044;13.788;2023-05-10T08:22:13;3.67;;;3.37;;
74245;SDS011;62601;51.044;13.788;2023-05-10T08:24:35;5.37;;;4.57;;
74245;SDS011;62601;51.044;13.788;2023-05-10T08:26:56;4.40;;;3.77;;
74245;SDS011;62601;51.044;13.788;2023-05-10T08:29:17;6.83;;;3.20;;
74245;SDS011;62601;51.044;13.788;2023-05-10T08:31:39;7.37;;;3.53;;
74245;SDS011;62601;51.044;13.788;2023-05-10T08:33:59;4.77;;;3.33;;
74245;SDS011;62601;51.044;13.788;2023-05-10T08:36:19;3.37;;;3.07;;
74245;SDS011;62601;51.044;13.788;2023-05-10T08:38:40;3.00;;;2.60;;
74245;SDS011;62601;51.044;13.788;2023-05-10T08:41:01;3.90;;;3.37;;
74245;SDS011;62601;51.044;13.788;2023-05-10T08:43:23;4.80;;;3.33;;
74245;SDS011;62601;51.044;13.788;2023-05-10T08:45:45;5.03;;;3.13;;
74245;SDS011;62601;51.044;13.788;2023-05-10T08:48:05;4.37;;;3.17;;
74245;SDS011;62601;51.044;13.788;2023-05-10T08:50:25;9.80;;;3.83;;
74245;SDS011;62601;51.044;13.788;2023-05-10T08:52:46;3.80;;;3.33;;
74245;SDS011;62601;51.044;13.788;2023-05-10T08:55:08;5.77;;;3.30;;
74245;SDS011;62601;51.044;13.788;2023-05-10T08:57:30;6.17;;;3.63;;
74245;SDS011;62601;51.044;13.788;2023-05-10T08:59:50;5.33;;;2.90;;
74245;SDS011;62601;51.044;13.788;2023-05-10T09:02:10;5.30;;;3.40;;
74245;SDS011;62601;51.044;13.788;2023-05-10T09:04:31;3.50;;;3.20;;
74245;SDS011;62601;51.044;13.788;2023-05-10T09:06:51;4.10;;;3.70;;
74245;SDS011;62601;51.044;13.788;2023-05-10T09:09:12;5.27;;;3.43;;
74245;SDS011;62601;51.044;13.788;2023-05-10T09:11:34;5.80;;;3.70;;
74245;SDS011;62601;51.044;13.788;2023-05-10T09:13:54;5.43;;;4.00;;
74245;SDS011;62601;51.044;13.788;2023-05-10T09:16:16;4.30;;;4.00;;
74245;SDS011;62601;51.044;13.788;2023-05-10T09:18:38;3.80;;;3.50;;
74245;SDS011;62601;51.044;13.788;2023-05-10T09:20:58;4.60;;;3.77;;
74245;SDS011;62601;51.044;13.788;2023-05-10T09:23:18;4.47;;;3.50;;
74245;SDS011;62601;51.044;13.788;2023-05-10T09:25:41;3.83;;;3.53;;
74245;SDS011;62601;51.044;13.788;2023-05-10T09:28:02;4.87;;;3.50;;
74245;SDS011;62601;51.044;13.788;2023-05-10T09:30:29;6.33;;;3.37;;
74245;SDS011;62601;51.044;13.788;2023-05-10T09:32:49;4.53;;;3.70;;
74245;SDS011;62601;51.044;13.788;2023-05-10T09:35:10;3.63;;;3.33;;
74245;SDS011;62601;51.044;13.788;2023-05-10T09:37:32;3.77;;;3.47;;
74245;SDS011;62601;51.044;13.788;2023-05-10T09:39:53;7.20;;;3.47;;
74245;SDS011;62601;51.044;13.788;2023-05-10T09:42:17;5.23;;;2.83;;
74245;SDS011;62601;51.044;13.788;2023-05-10T09:44:39;5.00;;;4.60;;
74245;SDS011;62601;51.044;13.788;2023-05-10T09:46:59;4.30;;;3.90;;
74245;SDS011;62601;51.044;13.788;2023-05-10T09:49:21;4.80;;;4.17;;
74245;SDS011;62601;51.044;13.788;2023-05-10T09:51:42;4.53;;;3.67;;
74245;SDS011;62601;51.044;13.788;2023-05-10T09:54:14;3.90;;;3.60;;
74245;SDS011;62601;51.044;13.788;2023-05-10T09:56:35;3.97;;;3.40;;
74245;SDS011;62601;51.044;13.788;2023-05-10T09:59:01;3.63;;;3.33;;
74245;SDS011;62601;51.044;13.788;2023-05-10T10:01:25;5.50;;;3.40;;
74245;SDS011;62601;51.044;13.788;2023-05-10T10:03:45;3.50;;;3.20;;
74245;SDS011;62601;51.044;13.788;2023-05-10T10:06:07;4.13;;;3.63;;
74245;SDS011;62601;51.044;13.788;2023-05-10T10:08:27;5.37;;;3.70;;
74245;SDS011;62601;51.044;13.788;2023-05-10T10:10:47;4.30;;;3.20;;
74245;SDS011;62601;51.044;13.788;2023-05-10T10:13:09;4.73;;;3.93;;
74245;SDS011;62601;51.044;13.788;2023-05-10T10:15:30;5.17;;;3.60;;
74245;SDS011;62601;51.044;13.788;2023-05-10T10:17:53;5.63;;;3.47;;
74245;SDS011;62601;51.044;13.788;2023-05-10T10:20:14;5.20;;;4.30;;
74245;SDS011;62601;51.044;13.788;2023-05-10T10:22:36;5.90;;;5.40;;
74245;SDS011;62601;51.044;13.788;2023-05-10T10:24:57;4.97;;;4.00;;
74245;SDS011;62601;51.044;13.788;2023-05-10T10:27:23;5.80;;;5.27;;
74245;SDS011;62601;51.044;13.788;2023-05-10T10:29:50;4.30;;;3.90;;
74245;SDS011;62601;51.044;13.788;2023-05-10T10:32:19;4.70;;;4.27;;
74245;SDS011;62601;51.044;13.788;2023-05-10T10:34:43;5.33;;;3.37;;
74245;SDS011;62601;51.044;13.788;2023-05-10T10:37:04;4.10;;;3.73;;
74245;SDS011;62601;51.044;13.788;2023-05-10T10:39:26;5.37;;;3.23;;
74245;SDS011;62601;51.044;13.788;2023-05-10T10:41:54;5.80;;;4.00;;
74245;SDS011;62601;51.044;13.788;2023-05-10T10:49:32;4.33;;;3.57;;
74245;SDS011;62601;51.044;13.788;2023-05-10T10:54:32;6.30;;;3.80;;
74245;SDS011;62601;51.044;13.788;2023-05-10T10:57:28;5.43;;;3.70;;
74245;SDS011;62601;51.044;13.788;2023-05-10T10:59:42;3.90;;;3.30;;
74245;SDS011;62601;51.044;13.788;2023-05-10T11:02:03;5.30;;;4.00;;
74245;SDS011;62601;51.044;13.788;2023-05-10T11:04:25;3.63;;;3.20;;
74245;SDS011;62601;51.044;13.788;2023-05-10T11:06:46;3.60;;;3.30;;
74245;SDS011;62601;51.044;13.788;2023-05-10T11:09:10;5.27;;;3.50;;
74245;SDS011;62601;51.044;13.788;2023-05-10T11:11:32;4.17;;;3.87;;
74245;SDS011;62601;51.044;13.788;2023-05-10T11:13:55;4.07;;;3.77;;
74245;SDS011;62601;51.044;13.788;2023-05-10T11:16:26;4.10;;;3.70;;
74245;SDS011;62601;51.044;13.788;2023-05-10T11:19:02;4.53;;;4.13;;
74245;SDS011;62601;51.044;13.788;2023-05-10T11:21:23;5.17;;;3.30;;
74245;SDS011;62601;51.044;13.788;2023-05-10T11:26:08;5.33;;;3.97;;
74245;SDS011;62601;51.044;13.788;2023-05-10T11:28:32;3.80;;;3.50;;
74245;SDS011;62601;51.044;13.788;2023-05-10T11:30:54;8.67;;;4.40;;
74245;SDS011;62601;51.044;13.788;2023-05-10T11:33:18;3.97;;;3.57;;
74245;SDS011;62601;51.044;13.788;2023-05-10T11:35:55;5.63;;;4.30;;
74245;SDS011;62601;51.044;13.788;2023-05-10T11:38:15;3.90;;;3.60;;
74245;SDS011;62601;51.044;13.788;2023-05-10T11:40:37;5.40;;;3.90;;
74245;SDS011;62601;51.044;13.788;2023-05-10T11:43:02;4.13;;;3.73;;
74245;SDS011;62601;51.044;13.788;2023-05-10T11:45:25;4.33;;;3.93;;
74245;SDS011;62601;51.044;13.788;2023-05-10T11:47:48;4.90;;;3.87;;
74245;SDS011;62601;51.044;13.788;2023-05-10T11:50:12;4.03;;;3.27;;
74245;SDS011;62601;51.044;13.788;2023-05-10T11:52:37;6.70;;;3.73;;
74245;SDS011;62601;51.044;13.788;2023-05-10T11:54:58;4.37;;;3.97;;
74245;SDS011;62601;51.044;13.788;2023-05-10T11:57:19;3.80;;;3.40;;
74245;SDS011;62601;51.044;13.788;2023-05-10T11:59:40;4.77;;;3.57;;
74245;SDS011;62601;51.044;13.788;2023-05-10T12:02:02;8.90;;;4.17;;
74245;SDS011;62601;51.044;13.788;2023-05-10T12:04:23;4.40;;;3.70;;
74245;SDS011;62601;51.044;13.788;2023-05-10T12:06:45;4.17;;;3.47;;
74245;SDS011;62601;51.044;13.788;2023-05-10T12:09:06;7.63;;;3.50;;
74245;SDS011;62601;51.044;13.788;2023-05-10T12:11:27;7.07;;;4.00;;
74245;SDS011;62601;51.044;13.788;2023-05-10T12:13:49;4.30;;;4.00;;
74245;SDS011;62601;51.044;13.788;2023-05-10T12:16:16;3.73;;;3.43;;
74245;SDS011;62601;51.044;13.788;2023-05-10T12:18:38;3.40;;;3.10;;
74245;SDS011;62601;51.044;13.788;2023-05-10T12:21:02;3.10;;;2.90;;
74245;SDS011;62601;51.044;13.788;2023-05-10T12:23:23;3.53;;;3.10;;
74245;SDS011;62601;51.044;13.788;2023-05-10T12:25:44;4.53;;;4.00;;
74245;SDS011;62601;51.044;13.788;2023-05-10T12:28:06;4.10;;;3.80;;
74245;SDS011;62601;51.044;13.788;2023-05-10T12:30:28;4.43;;;4.03;;
74245;SDS011;62601;51.044;13.788;2023-05-10T12:32:50;4.93;;;4.23;;
74245;SDS011;62601;51.044;13.788;2023-05-10T12:35:11;4.33;;;3.93;;
74245;SDS011;62601;51.044;13.788;2023-05-10T12:37:33;4.57;;;3.73;;
74245;SDS011;62601;51.044;13.788;2023-05-10T12:39:53;4.90;;;4.20;;
74245;SDS011;62601;51.044;13.788;2023-05-10T12:42:14;4.27;;;3.87;;
74245;SDS011;62601;51.044;13.788;2023-05-10T12:44:34;4.23;;;3.83;;
74245;SDS011;62601;51.044;13.788;2023-05-10T12:46:56;4.13;;;3.73;;
74245;SDS011;62601;51.044;13.788;2023-05-10T12:49:17;5.83;;;4.60;;
74245;SDS011;62601;51.044;13.788;2023-05-10T12:51:37;4.30;;;4.00;;
74245;SDS011;62601;51.044;13.788;2023-05-10T12:53:58;5.53;;;4.00;;
74245;SDS011;62601;51.044;13.788;2023-05-10T12:56:20;5.13;;;3.73;;
74245;SDS011;62601;51.044;13.788;2023-05-10T12:58:40;6.90;;;3.27;;
74245;SDS011;62601;51.044;13.788;2023-05-10T13:01:00;5.40;;;5.00;;
74245;SDS011;62601;51.044;13.788;2023-05-10T13:03:22;4.27;;;3.90;;
74245;SDS011;62601;51.044;13.788;2023-05-10T13:05:43;4.47;;;3.60;;
74245;SDS011;62601;51.044;13.788;2023-05-10T13:08:05;4.30;;;3.90;;
74245;SDS011;62601;51.044;13.788;2023-05-10T13:10:27;4.30;;;4.00;;
74245;SDS011;62601;51.044;13.788;2023-05-10T13:12:52;6.47;;;4.50;;
74245;SDS011;62601;51.044;13.788;2023-05-10T13:15:12;6.27;;;3.50;;
74245;SDS011;62601;51.044;13.788;2023-05-10T13:17:33;3.73;;;3.30;;
74245;SDS011;62601;51.044;13.788;2023-05-10T13:19:55;3.80;;;3.50;;
74245;SDS011;62601;51.044;13.788;2023-05-10T13:22:17;3.50;;;3.20;;
74245;SDS011;62601;51.044;13.788;2023-05-10T13:24:38;4.17;;;3.30;;
74245;SDS011;62601;51.044;13.788;2023-05-10T13:26:59;5.30;;;3.60;;
74245;SDS011;62601;51.044;13.788;2023-05-10T13:29:19;6.40;;;3.33;;
74245;SDS011;62601;51.044;13.788;2023-05-10T13:31:39;4.10;;;3.67;;
74245;SDS011;62601;51.044;13.788;2023-05-10T13:34:00;3.53;;;3.33;;
74245;SDS011;62601;51.044;13.788;2023-05-10T13:36:20;3.97;;;3.40;;
74245;SDS011;62601;51.044;13.788;2023-05-10T13:38:41;5.43;;;3.80;;
74245;SDS011;62601;51.044;13.788;2023-05-10T13:41:02;3.30;;;3.00;;
74245;SDS011;62601;51.044;13.788;2023-05-10T13:43:27;3.93;;;3.63;;
74245;SDS011;62601;51.044;13.788;2023-05-10T13:45:48;5.23;;;3.30;;
74245;SDS011;62601;51.044;13.788;2023-05-10T13:48:08;3.50;;;3.17;;
74245;SDS011;62601;51.044;13.788;2023-05-10T13:50:29;5.93;;;4.07;;
74245;SDS011;62601;51.044;13.788;2023-05-10T13:52:50;4.17;;;3.87;;
74245;SDS011;62601;51.044;13.788;2023-05-10T13:55:10;4.67;;;3.83;;
74245;SDS011;62601;51.044;13.788;2023-05-10T13:57:31;7.10;;;4.10;;
74245;SDS011;62601;51.044;13.788;2023-05-10T13:59:51;5.80;;;5.30;;
74245;SDS011;62601;51.044;13.788;2023-05-10T14:02:11;4.93;;;4.53;;
74245;SDS011;62601;51.044;13.788;2023-05-10T14:04:31;4.83;;;4.43;;
74245;SDS011;62601;51.044;13.788;2023-05-10T14:06:52;3.77;;;3.47;;
74245;SDS011;62601;51.044;13.788;2023-05-10T14:09:12;3.33;;;3.03;;
74245;SDS011;62601;51.044;13.788;2023-05-10T14:11:32;3.97;;;3.40;;
74245;SDS011;62601;51.044;13.788;2023-05-10T14:13:52;3.47;;;3.20;;
74245;SDS011;62601;51.044;13.788;2023-05-10T14:16:14;6.30;;;3.60;;
74245;SDS011;62601;51.044;13.788;2023-05-10T14:18:35;3.43;;;3.13;;
74245;SDS011;62601;51.044;13.788;2023-05-10T14:20:55;5.50;;;4.00;;
74245;SDS011;62601;51.044;13.788;2023-05-10T14:23:17;3.80;;;3.33;;
74245;SDS011;62601;51.044;13.788;2023-05-10T14:25:40;4.00;;;3.23;;
74245;SDS011;62601;51.044;13.788;2023-05-10T14:28:00;3.70;;;3.40;;
74245;SDS011;62601;51.044;13.788;2023-05-10T14:30:21;3.70;;;3.40;;